createdAt,value
2019-05-12T00:01:34.224Z,7.87
2019-05-12T00:04:05.521Z,7.83
2019-05-12T00:06:38.561Z,8.30
2019-05-12T00:09:08.371Z,8.40
2019-05-12T00:11:40.503Z,8.45
2019-05-12T00:14:11.796Z,7.75
2019-05-12T00:19:09.352Z,7.90
2019-05-12T00:21:40.360Z,8.78
2019-05-12T00:24:15.480Z,9.03
2019-05-12T00:26:44.661Z,9.38
2019-05-12T00:29:18.529Z,8.63
2019-05-12T00:31:48.303Z,8.38
2019-05-12T00:34:18.404Z,8.50
2019-05-12T00:36:48.867Z,8.95
2019-05-12T00:39:19.129Z,9.38
2019-05-12T00:41:50.900Z,8.95
2019-05-12T00:44:20.001Z,9.23
2019-05-12T00:46:49.096Z,9.48
2019-05-12T00:49:19.292Z,8.68
2019-05-12T00:51:49.133Z,9.05
2019-05-12T00:54:18.543Z,9.70
2019-05-12T00:56:48.184Z,9.30
2019-05-12T00:59:19.426Z,9.43
2019-05-12T01:01:50.703Z,9.05
2019-05-12T01:04:20.042Z,9.63
2019-05-12T01:06:51.954Z,9.55
2019-05-12T01:09:22.360Z,10.40
2019-05-12T01:11:52.924Z,10.68
2019-05-12T01:14:23.687Z,9.90
2019-05-12T01:19:22.509Z,9.45
2019-05-12T01:21:51.564Z,10.15
2019-05-12T01:24:20.755Z,9.83
2019-05-12T01:26:51.470Z,10.48
2019-05-12T01:31:50.160Z,10.08
2019-05-12T01:34:19.229Z,10.45
2019-05-12T01:36:49.601Z,10.13
2019-05-12T01:39:20.122Z,10.80
2019-05-12T01:41:51.080Z,10.40
2019-05-12T01:44:21.711Z,11.40
2019-05-12T01:49:20.870Z,10.93
2019-05-12T01:54:21.196Z,10.72
2019-05-12T01:56:51.723Z,11.20
2019-05-12T01:59:22.582Z,11.30
2019-05-12T02:04:20.663Z,11.08
2019-05-12T02:06:50.342Z,11.55
2019-05-12T02:09:20.925Z,11.90
2019-05-12T02:11:50.140Z,12.60
2019-05-12T02:14:20.721Z,12.07
2019-05-12T02:16:49.980Z,11.45
2019-05-12T02:19:22.108Z,11.30
2019-05-12T02:21:53.161Z,11.40
2019-05-12T02:24:27.021Z,12.07
2019-05-12T02:26:55.042Z,11.78
2019-05-12T02:29:24.220Z,11.45
2019-05-12T02:31:54.382Z,11.78
2019-05-12T02:34:25.502Z,11.90
2019-05-12T02:36:56.359Z,11.73
2019-05-12T02:39:26.884Z,12.37
2019-05-12T02:41:57.203Z,13.08
2019-05-12T02:44:26.333Z,12.63
2019-05-12T02:46:55.481Z,12.35
2019-05-12T02:49:24.961Z,12.20
2019-05-12T02:51:54.802Z,12.45
2019-05-12T02:54:45.841Z,13.37
2019-05-12T02:56:56.352Z,12.75
2019-05-12T02:59:25.671Z,13.05
2019-05-12T03:01:55.232Z,12.75
2019-05-12T03:04:26.602Z,12.78
2019-05-12T03:06:56.563Z,13.48
2019-05-12T03:09:28.328Z,13.48
2019-05-12T03:11:58.501Z,13.28
2019-05-12T03:14:29.461Z,13.62
2019-05-12T03:16:58.681Z,12.47
2019-05-12T03:19:28.942Z,13.58
2019-05-12T03:21:59.569Z,13.78
2019-05-12T03:24:28.461Z,13.90
2019-05-12T03:27:00.502Z,13.35
2019-05-12T03:29:29.522Z,12.93
2019-05-12T03:32:01.423Z,13.10
2019-05-12T03:34:37.519Z,13.00
2019-05-12T03:37:07.913Z,12.75
2019-05-12T03:39:34.341Z,13.48
2019-05-12T03:42:05.091Z,13.93
2019-05-12T03:44:35.261Z,13.68
2019-05-12T03:47:05.789Z,13.62
2019-05-12T03:49:37.402Z,13.18
2019-05-12T03:52:08.764Z,13.40
2019-05-12T03:54:38.201Z,12.78
2019-05-12T03:57:07.521Z,13.78
2019-05-12T03:59:36.623Z,13.98
2019-05-12T04:02:08.182Z,12.80
2019-05-12T04:04:39.849Z,12.82
2019-05-12T04:07:09.901Z,13.80
2019-05-12T04:09:39.061Z,13.83
2019-05-12T04:12:09.280Z,13.43
2019-05-12T04:14:38.322Z,12.78
2019-05-12T04:17:08.960Z,14.35
2019-05-12T04:19:40.442Z,13.83
2019-05-12T04:22:09.460Z,13.68
2019-05-12T04:24:44.338Z,14.15
2019-05-12T04:27:15.233Z,13.58
2019-05-12T04:29:44.468Z,13.62
2019-05-12T04:32:14.638Z,14.05
2019-05-12T04:34:44.686Z,13.30
2019-05-12T04:37:14.828Z,13.55
2019-05-12T04:39:45.561Z,13.55
2019-05-12T04:42:15.054Z,14.43
2019-05-12T04:44:47.380Z,13.60
2019-05-12T04:47:16.509Z,13.72
2019-05-12T04:49:47.141Z,13.55
2019-05-12T04:52:16.183Z,14.20
2019-05-12T04:54:46.281Z,14.10
2019-05-12T04:57:15.625Z,13.60
2019-05-12T04:59:46.481Z,14.18
2019-05-12T05:04:45.397Z,13.37
2019-05-12T05:07:15.653Z,13.25
2019-05-12T05:09:45.749Z,13.10
2019-05-12T05:12:14.701Z,14.47
2019-05-12T05:14:44.753Z,13.98
2019-05-12T05:17:15.030Z,13.28
2019-05-12T05:19:45.948Z,13.38
2019-05-12T05:24:46.320Z,13.55
2019-05-12T05:27:16.740Z,13.45
2019-05-12T05:29:45.501Z,13.10
2019-05-12T05:32:14.560Z,13.05
2019-05-12T05:34:52.867Z,13.70
2019-05-12T05:37:16.371Z,13.68
2019-05-12T05:39:49.627Z,13.30
2019-05-12T05:42:22.115Z,12.58
2019-05-12T05:44:48.770Z,12.98
2019-05-12T05:47:19.812Z,13.28
2019-05-12T05:49:48.780Z,13.35
2019-05-12T05:52:17.921Z,13.43
2019-05-12T05:54:46.822Z,13.28
2019-05-12T05:57:20.043Z,13.58
2019-05-12T05:59:48.140Z,13.38
2019-05-12T06:02:23.161Z,13.05
2019-05-12T06:04:50.209Z,12.73
2019-05-12T06:07:23.828Z,13.15
2019-05-12T06:09:53.780Z,12.25
2019-05-12T06:12:24.033Z,12.80
2019-05-12T06:14:59.539Z,12.93
2019-05-12T06:17:24.540Z,12.20
2019-05-12T06:19:53.908Z,12.90
2019-05-12T06:22:25.320Z,12.73
2019-05-12T06:24:58.928Z,11.88
2019-05-12T06:27:29.098Z,11.97
2019-05-12T06:30:00.738Z,12.28
2019-05-12T06:32:28.640Z,12.58
2019-05-12T06:35:02.272Z,11.97
2019-05-12T06:37:33.592Z,12.05
2019-05-12T06:42:34.041Z,11.87
2019-05-12T06:45:05.381Z,11.65
2019-05-12T06:47:39.016Z,12.45
2019-05-12T06:50:06.761Z,11.53
2019-05-12T06:52:41.937Z,11.97
2019-05-12T06:55:09.760Z,11.93
2019-05-12T06:57:44.978Z,11.45
2019-05-12T07:00:11.164Z,11.93
2019-05-12T07:02:51.651Z,11.48
2019-05-12T07:05:14.581Z,11.22
2019-05-12T07:07:46.175Z,11.73
2019-05-12T07:10:35.731Z,11.38
2019-05-12T07:15:16.340Z,10.90
2019-05-12T07:18:00.206Z,11.10
2019-05-12T07:20:37.210Z,10.72
2019-05-12T07:23:03.520Z,11.10
2019-05-12T07:28:07.237Z,10.50
2019-05-12T07:30:35.256Z,11.12
2019-05-12T07:33:05.706Z,10.75
2019-05-12T07:35:36.000Z,10.88
2019-05-12T07:38:06.303Z,10.60
2019-05-12T07:40:37.797Z,10.35
2019-05-12T07:43:09.812Z,11.18
2019-05-12T07:45:37.760Z,10.88
2019-05-12T07:48:10.459Z,10.98
2019-05-12T07:50:43.212Z,10.10
2019-05-12T07:53:13.785Z,10.68
2019-05-12T07:55:47.446Z,11.22
2019-05-12T07:58:19.217Z,9.60
2019-05-12T08:00:53.873Z,10.30
2019-05-12T08:03:24.282Z,10.48
2019-05-12T08:05:57.468Z,10.00
2019-05-12T08:08:28.640Z,9.53
2019-05-12T08:13:31.298Z,9.75
2019-05-12T08:16:00.849Z,9.58
2019-05-12T08:18:30.653Z,9.98
2019-05-12T08:21:03.572Z,9.88
2019-05-12T08:23:37.600Z,9.83
2019-05-12T08:26:12.267Z,9.05
2019-05-12T08:28:40.376Z,9.73
2019-05-12T08:31:09.421Z,9.90
2019-05-12T08:33:43.496Z,8.73
2019-05-12T08:36:16.414Z,9.53
2019-05-12T08:38:48.385Z,8.95
2019-05-12T08:41:20.281Z,9.55
2019-05-12T08:43:54.905Z,8.93
2019-05-12T08:46:20.561Z,9.53
2019-05-12T08:48:51.427Z,9.15
2019-05-12T08:51:24.459Z,9.10
2019-05-12T08:54:02.453Z,8.73
2019-05-12T08:56:26.339Z,8.15
2019-05-12T08:58:55.403Z,9.25
2019-05-12T09:01:30.677Z,8.90
2019-05-12T09:04:00.251Z,8.73
2019-05-12T09:06:31.561Z,8.35
2019-05-12T09:09:04.120Z,8.78
2019-05-12T09:11:34.088Z,8.60
2019-05-12T09:14:05.739Z,8.68
2019-05-12T09:16:33.848Z,8.50
2019-05-12T09:19:04.902Z,7.95
2019-05-12T09:21:36.953Z,7.83
2019-05-12T09:24:05.680Z,7.95
2019-05-12T09:26:37.821Z,7.50
2019-05-12T09:29:07.481Z,7.97
2019-05-12T09:31:36.741Z,7.60
2019-05-12T09:34:11.508Z,7.65
2019-05-12T09:36:38.241Z,7.78
2019-05-12T09:39:07.961Z,7.67
2019-05-12T09:41:42.377Z,7.85
2019-05-12T09:44:08.940Z,7.75
2019-05-12T09:46:38.041Z,7.08
2019-05-12T09:49:07.241Z,7.45
2019-05-12T09:51:41.243Z,6.80
2019-05-12T09:54:07.782Z,7.50
2019-05-12T09:56:37.680Z,7.20
2019-05-12T09:59:17.920Z,6.67
2019-05-12T10:01:39.689Z,7.20
2019-05-12T10:04:17.844Z,6.70
2019-05-12T10:06:44.410Z,7.17
2019-05-12T10:09:37.758Z,7.15
2019-05-12T10:12:09.982Z,6.83
2019-05-12T10:14:40.806Z,6.60
2019-05-12T10:17:11.321Z,6.75
2019-05-12T10:19:43.396Z,6.25
2019-05-12T10:22:12.221Z,6.33
2019-05-12T10:24:54.667Z,6.08
2019-05-12T10:27:13.877Z,5.97
2019-05-12T10:29:48.720Z,6.12
2019-05-12T10:32:19.469Z,5.47
2019-05-12T10:34:51.193Z,5.65
2019-05-12T10:37:27.309Z,5.50
2019-05-12T10:39:54.114Z,5.20
2019-05-12T10:42:24.340Z,5.78
2019-05-12T10:44:56.470Z,5.80
2019-05-12T10:49:54.881Z,5.60
2019-05-12T10:52:29.524Z,4.92
2019-05-12T10:54:57.688Z,5.25
2019-05-12T10:57:30.262Z,5.03
2019-05-12T10:59:59.260Z,5.00
2019-05-12T11:02:30.468Z,5.20
2019-05-12T11:07:28.571Z,4.65
2019-05-12T11:10:20.097Z,5.20
2019-05-12T11:12:49.020Z,4.97
2019-05-12T11:15:18.160Z,5.25
2019-05-12T11:17:54.668Z,5.35
2019-05-12T11:20:26.849Z,5.00
2019-05-12T11:22:57.100Z,4.80
2019-05-12T11:25:27.560Z,5.00
2019-05-12T11:27:56.320Z,4.75
2019-05-12T11:30:25.282Z,4.37
2019-05-12T11:32:56.020Z,4.83
2019-05-12T11:37:55.897Z,4.83
2019-05-12T11:40:25.040Z,4.72
2019-05-12T11:42:59.690Z,4.80
2019-05-12T11:45:26.054Z,4.60
2019-05-12T11:47:59.513Z,4.70
2019-05-12T11:52:55.120Z,4.10
2019-05-12T11:55:29.379Z,4.47
2019-05-12T12:00:33.470Z,4.80
2019-05-12T12:03:12.552Z,4.72
2019-05-12T12:05:38.298Z,5.03
2019-05-12T12:08:11.201Z,4.58
2019-05-12T12:10:49.308Z,5.10
2019-05-12T12:13:25.626Z,4.85
2019-05-12T12:15:53.115Z,4.72
2019-05-12T12:18:24.780Z,4.75
2019-05-12T12:21:04.187Z,5.00
2019-05-12T12:23:34.241Z,4.90
2019-05-12T12:26:05.880Z,5.00
2019-05-12T12:28:43.527Z,4.60
2019-05-12T12:31:17.180Z,4.67
2019-05-12T12:33:53.632Z,4.65
2019-05-12T12:36:24.723Z,4.67
2019-05-12T12:38:56.160Z,4.60
2019-05-12T12:41:29.640Z,4.45
2019-05-12T12:44:05.708Z,4.55
2019-05-12T12:47:00.418Z,4.60
2019-05-12T12:49:33.871Z,4.60
2019-05-12T12:52:03.341Z,4.65
2019-05-12T12:54:35.561Z,4.40
2019-05-12T12:57:10.063Z,4.50
2019-05-12T12:59:51.093Z,4.75
2019-05-12T13:02:24.497Z,4.92
2019-05-12T13:04:58.908Z,4.83
2019-05-12T13:07:33.299Z,5.22
2019-05-12T13:10:09.428Z,5.08
2019-05-12T13:12:38.240Z,5.65
2019-05-12T13:15:11.140Z,5.22
2019-05-12T13:17:46.160Z,5.58
2019-05-12T13:20:17.041Z,5.15
2019-05-12T13:22:49.380Z,5.87
2019-05-12T13:25:28.020Z,5.22
2019-05-12T13:28:01.550Z,5.17
2019-05-12T13:30:45.863Z,5.22
2019-05-12T13:33:08.782Z,5.25
2019-05-12T13:35:40.160Z,4.95
2019-05-12T13:38:16.341Z,5.20
2019-05-12T13:40:50.341Z,4.97
2019-05-12T13:43:20.780Z,5.00
2019-05-12T13:48:49.818Z,4.87
2019-05-12T13:51:27.880Z,4.50
2019-05-12T13:53:59.022Z,4.50
2019-05-12T13:56:35.669Z,4.60
2019-05-12T13:59:12.206Z,4.85
2019-05-12T14:01:47.900Z,4.25
2019-05-12T14:04:27.695Z,5.03
2019-05-12T14:06:58.329Z,4.72
2019-05-12T14:09:38.441Z,4.70
2019-05-12T14:12:14.822Z,4.92
2019-05-12T14:14:59.660Z,4.85
2019-05-12T14:17:40.302Z,4.97
2019-05-12T14:20:19.715Z,4.50
2019-05-12T14:22:47.480Z,4.50
2019-05-12T14:25:20.977Z,4.58
2019-05-12T14:27:59.227Z,4.75
2019-05-12T14:30:33.532Z,4.80
2019-05-12T14:33:03.769Z,4.95
2019-05-12T14:35:45.353Z,4.70
2019-05-12T14:38:19.235Z,4.50
2019-05-12T14:40:53.792Z,4.62
2019-05-12T14:43:31.300Z,4.83
2019-05-12T14:46:10.042Z,4.97
2019-05-12T14:48:46.431Z,4.90
2019-05-12T14:51:15.181Z,4.40
2019-05-12T14:53:50.221Z,5.00
2019-05-12T14:56:25.240Z,4.85
2019-05-12T14:59:00.659Z,5.53
2019-05-12T15:01:51.761Z,4.75
2019-05-12T15:04:10.260Z,5.03
2019-05-12T15:06:46.200Z,4.53
2019-05-12T15:09:28.707Z,4.53
2019-05-12T15:12:03.428Z,4.53
2019-05-12T15:14:38.010Z,4.72
2019-05-12T15:17:06.300Z,4.70
2019-05-12T15:19:38.800Z,4.72
2019-05-12T15:22:14.782Z,4.70
2019-05-12T15:24:49.356Z,4.65
2019-05-12T15:27:37.883Z,4.03
2019-05-12T15:29:59.681Z,4.60
2019-05-12T15:32:34.024Z,4.22
2019-05-12T15:35:03.930Z,4.40
2019-05-12T15:37:38.977Z,4.53
2019-05-12T15:40:08.750Z,4.90
2019-05-12T15:42:45.140Z,4.33
2019-05-12T15:45:19.940Z,4.58
2019-05-12T15:47:53.378Z,4.35
2019-05-12T15:50:23.202Z,4.37
2019-05-12T15:52:58.400Z,4.45
2019-05-12T15:55:34.574Z,4.17
2019-05-12T15:58:06.404Z,4.75
2019-05-12T16:00:40.021Z,4.22
2019-05-12T16:03:12.080Z,4.33
2019-05-12T16:05:45.400Z,4.45
2019-05-12T16:08:21.846Z,4.47
2019-05-12T16:10:57.088Z,4.53
2019-05-12T16:13:26.120Z,4.60
2019-05-12T16:16:03.143Z,4.30
2019-05-12T16:18:28.140Z,4.30
2019-05-12T16:21:05.152Z,4.47
2019-05-12T16:23:37.101Z,4.65
2019-05-12T16:26:16.140Z,4.30
2019-05-12T16:28:47.980Z,4.30
2019-05-12T16:31:20.840Z,4.53
2019-05-12T16:34:00.979Z,4.40
2019-05-12T16:36:27.460Z,4.62
2019-05-12T16:39:03.917Z,4.62
2019-05-12T16:41:34.860Z,4.37
2019-05-12T16:44:17.269Z,4.60
2019-05-12T16:46:40.143Z,4.55
2019-05-12T16:49:08.927Z,4.70
2019-05-12T16:51:43.726Z,4.45
2019-05-12T16:54:13.440Z,4.28
2019-05-12T16:56:43.373Z,4.25
2019-05-12T16:59:16.732Z,4.20
2019-05-12T17:01:47.380Z,4.53
2019-05-12T17:04:21.242Z,4.55
2019-05-12T17:06:56.848Z,4.62
2019-05-12T17:09:27.720Z,4.25
2019-05-12T17:14:30.144Z,4.53
2019-05-12T17:17:03.785Z,4.55
2019-05-12T17:19:34.081Z,4.65
2019-05-12T17:22:04.169Z,4.15
2019-05-12T17:24:35.960Z,4.47
2019-05-12T17:27:09.334Z,4.60
2019-05-12T17:29:43.377Z,4.53
2019-05-12T17:32:14.940Z,4.28
2019-05-12T17:34:53.281Z,4.30
2019-05-12T17:37:25.933Z,4.20
2019-05-12T17:40:00.076Z,4.50
2019-05-12T17:42:33.404Z,4.28
2019-05-12T17:45:09.269Z,4.17
2019-05-12T17:47:44.304Z,4.15
2019-05-12T17:50:14.840Z,4.35
2019-05-12T17:52:50.453Z,4.20
2019-05-12T17:55:18.208Z,4.08
2019-05-12T17:57:50.259Z,4.08
2019-05-12T18:00:23.343Z,3.95
2019-05-12T18:03:00.110Z,4.03
2019-05-12T18:05:27.241Z,3.98
2019-05-12T18:10:32.630Z,3.90
2019-05-12T18:13:06.001Z,4.12
2019-05-12T18:15:41.048Z,4.15
2019-05-12T18:18:15.323Z,4.17
2019-05-12T18:20:48.693Z,4.30
2019-05-12T18:23:26.247Z,4.00
2019-05-12T18:26:05.805Z,4.15
2019-05-12T18:28:35.742Z,4.50
2019-05-12T18:31:10.511Z,4.20
2019-05-12T18:33:51.969Z,4.30
2019-05-12T18:36:23.622Z,4.22
2019-05-12T18:39:05.585Z,4.37
2019-05-12T18:44:29.088Z,4.30
2019-05-12T18:46:49.860Z,4.05
2019-05-12T18:49:23.809Z,3.80
2019-05-12T18:51:55.364Z,4.17
2019-05-12T18:54:34.426Z,3.90
2019-05-12T18:57:06.755Z,4.15
2019-05-12T18:59:37.760Z,4.28
2019-05-12T19:02:06.541Z,4.25
2019-05-12T19:04:41.325Z,4.35
2019-05-12T19:07:11.221Z,3.98
2019-05-12T19:09:40.301Z,4.25
2019-05-12T19:12:17.918Z,4.25
2019-05-12T19:14:43.541Z,4.28
2019-05-12T19:17:14.138Z,4.00
2019-05-12T19:19:46.009Z,4.20
2019-05-12T19:22:17.548Z,4.00
2019-05-12T19:24:50.086Z,4.03
2019-05-12T19:27:20.878Z,4.30
2019-05-12T19:29:50.388Z,3.55
2019-05-12T19:32:27.937Z,3.80
2019-05-12T19:34:54.586Z,3.87
2019-05-12T19:37:26.390Z,3.77
2019-05-12T19:39:54.640Z,3.70
2019-05-12T19:42:26.168Z,4.05
2019-05-12T19:44:56.794Z,4.33
2019-05-12T19:47:34.532Z,3.80
2019-05-12T19:49:59.545Z,4.17
2019-05-12T19:52:32.801Z,3.92
2019-05-12T19:55:06.548Z,3.85
2019-05-12T19:57:35.520Z,4.22
2019-05-12T20:00:10.321Z,3.77
2019-05-12T20:02:42.160Z,3.65
2019-05-12T20:05:15.066Z,4.00
2019-05-12T20:07:44.961Z,3.85
2019-05-12T20:10:17.660Z,3.60
2019-05-12T20:12:54.773Z,4.33
2019-05-12T20:15:30.081Z,4.00
2019-05-12T20:18:04.590Z,3.60
2019-05-12T20:20:41.777Z,3.92
2019-05-12T20:23:10.921Z,4.45
2019-05-12T20:25:40.140Z,3.90
2019-05-12T20:28:21.160Z,4.05
2019-05-12T20:31:10.900Z,4.12
2019-05-12T20:33:39.880Z,3.40
2019-05-12T20:36:14.366Z,3.77
2019-05-12T20:38:54.321Z,3.80
2019-05-12T20:41:26.796Z,3.58
2019-05-12T20:43:59.041Z,3.52
2019-05-12T20:46:33.994Z,3.52
2019-05-12T20:49:14.917Z,3.90
2019-05-12T20:54:26.281Z,3.55
2019-05-12T20:57:02.274Z,3.80
2019-05-12T20:59:33.809Z,3.83
2019-05-12T21:02:08.520Z,4.20
2019-05-12T21:05:00.530Z,4.05
2019-05-12T21:07:29.828Z,3.83
2019-05-12T21:10:06.131Z,4.15
2019-05-12T21:12:40.019Z,3.40
2019-05-12T21:15:17.429Z,3.85
2019-05-12T21:17:52.266Z,3.92
2019-05-12T21:20:24.435Z,3.60
2019-05-12T21:22:58.966Z,3.40
2019-05-12T21:25:35.621Z,3.52
2019-05-12T21:28:09.401Z,4.00
2019-05-12T21:30:48.287Z,4.00
2019-05-12T21:33:23.866Z,4.30
2019-05-12T21:35:55.981Z,3.47
2019-05-12T21:38:29.392Z,3.45
2019-05-12T21:40:56.240Z,3.62
2019-05-12T21:43:35.288Z,3.60
2019-05-12T21:46:13.214Z,3.70
2019-05-12T21:48:46.961Z,3.12
2019-05-12T21:51:23.433Z,3.90
2019-05-12T21:54:06.523Z,3.40
2019-05-12T21:56:44.988Z,3.70
2019-05-12T21:59:16.980Z,3.80
2019-05-12T22:02:00.468Z,3.70
2019-05-12T22:04:42.855Z,3.33
2019-05-12T22:07:16.200Z,3.70
2019-05-12T22:09:51.240Z,3.92
2019-05-12T22:12:33.244Z,3.58
2019-05-12T22:15:19.574Z,3.50
2019-05-12T22:18:04.132Z,3.92
2019-05-12T22:20:44.327Z,3.87
2019-05-12T22:23:24.791Z,3.65
2019-05-12T22:26:00.286Z,3.15
2019-05-12T22:28:29.380Z,3.60
2019-05-12T22:31:04.062Z,3.50
2019-05-12T22:33:47.473Z,3.50
2019-05-12T22:36:20.793Z,3.62
2019-05-12T22:38:44.428Z,3.60
2019-05-12T22:41:20.121Z,3.80
2019-05-12T22:43:59.568Z,3.17
2019-05-12T22:46:35.225Z,3.42
2019-05-12T22:49:04.980Z,3.55
2019-05-12T22:51:54.670Z,3.30
2019-05-12T22:57:16.161Z,3.70
2019-05-12T22:59:53.068Z,3.70
2019-05-12T23:02:30.741Z,4.05
2019-05-12T23:05:04.100Z,3.72
2019-05-12T23:07:40.268Z,3.85
2019-05-12T23:10:19.201Z,4.25
2019-05-12T23:12:56.845Z,4.17
2019-05-12T23:15:28.248Z,3.98
2019-05-12T23:18:04.001Z,4.00
2019-05-12T23:20:35.797Z,3.83
2019-05-12T23:23:15.412Z,4.00
2019-05-12T23:25:51.916Z,4.00
2019-05-12T23:28:25.585Z,4.15
2019-05-12T23:30:58.241Z,3.80
2019-05-12T23:33:36.784Z,4.15
2019-05-12T23:36:34.994Z,4.30
2019-05-12T23:39:00.809Z,4.25
2019-05-12T23:41:38.361Z,4.30
2019-05-12T23:44:17.308Z,4.33
2019-05-12T23:46:55.620Z,4.20
2019-05-12T23:49:29.109Z,4.10
2019-05-12T23:52:03.852Z,4.35
2019-05-12T23:54:46.040Z,4.20
2019-05-12T23:57:24.612Z,3.90
2019-05-12T23:59:53.140Z,4.20
